sensor_id;sensor_type;location;lat;lon;timestamp;P1;durP1;ratioP1;P2;durP2;ratioP2
38843;SDS011;24596;48.080;8.362;2023-05-15T00:02:04;9.25;;;5.53;;
38843;SDS011;24596;48.080;8.362;2023-05-15T00:04:30;11.70;;;5.30;;
38843;SDS011;24596;48.080;8.362;2023-05-15T00:06:55;11.10;;;5.60;;
38843;SDS011;24596;48.080;8.362;2023-05-15T00:09:21;9.13;;;5.40;;
38843;SDS011;24596;48.080;8.362;2023-05-15T00:11:46;9.18;;;5.32;;
38843;SDS011;24596;48.080;8.362;2023-05-15T00:14:11;12.82;;;6.18;;
38843;SDS011;24596;48.080;8.362;2023-05-15T00:16:36;13.82;;;6.15;;
38843;SDS011;24596;48.080;8.362;2023-05-15T00:19:02;9.30;;;6.28;;
38843;SDS011;24596;48.080;8.362;2023-05-15T00:21:27;10.23;;;6.07;;
38843;SDS011;24596;48.080;8.362;2023-05-15T00:23:52;9.15;;;5.53;;
38843;SDS011;24596;48.080;8.362;2023-05-15T00:26:18;12.77;;;6.20;;
38843;SDS011;24596;48.080;8.362;2023-05-15T00:28:43;11.48;;;6.22;;
38843;SDS011;24596;48.080;8.362;2023-05-15T00:31:08;9.88;;;6.20;;
38843;SDS011;24596;48.080;8.362;2023-05-15T00:33:36;10.07;;;5.88;;
38843;SDS011;24596;48.080;8.362;2023-05-15T00:36:01;9.55;;;5.75;;
38843;SDS011;24596;48.080;8.362;2023-05-15T00:38:26;8.65;;;5.63;;
38843;SDS011;24596;48.080;8.362;2023-05-15T00:40:52;10.35;;;5.57;;
38843;SDS011;24596;48.080;8.362;2023-05-15T00:43:18;14.80;;;6.10;;
38843;SDS011;24596;48.080;8.362;2023-05-15T00:45:44;9.05;;;5.32;;
38843;SDS011;24596;48.080;8.362;2023-05-15T00:48:10;8.95;;;5.80;;
38843;SDS011;24596;48.080;8.362;2023-05-15T00:50:35;10.60;;;5.47;;
38843;SDS011;24596;48.080;8.362;2023-05-15T00:53:02;11.15;;;6.07;;
38843;SDS011;24596;48.080;8.362;2023-05-15T00:55:27;11.40;;;6.40;;
38843;SDS011;24596;48.080;8.362;2023-05-15T00:57:53;12.07;;;5.93;;
38843;SDS011;24596;48.080;8.362;2023-05-15T01:00:20;11.60;;;6.32;;
38843;SDS011;24596;48.080;8.362;2023-05-15T01:02:45;10.30;;;6.47;;
38843;SDS011;24596;48.080;8.362;2023-05-15T01:05:11;12.43;;;6.50;;
38843;SDS011;24596;48.080;8.362;2023-05-15T01:07:39;12.15;;;6.05;;
38843;SDS011;24596;48.080;8.362;2023-05-15T01:10:08;11.70;;;6.72;;
38843;SDS011;24596;48.080;8.362;2023-05-15T01:12:34;13.52;;;6.15;;
38843;SDS011;24596;48.080;8.362;2023-05-15T01:14:59;9.60;;;6.00;;
38843;SDS011;24596;48.080;8.362;2023-05-15T01:17:25;10.88;;;6.07;;
38843;SDS011;24596;48.080;8.362;2023-05-15T01:19:50;11.50;;;6.63;;
38843;SDS011;24596;48.080;8.362;2023-05-15T01:22:40;10.52;;;6.45;;
38843;SDS011;24596;48.080;8.362;2023-05-15T01:27:53;15.50;;;7.18;;
38843;SDS011;24596;48.080;8.362;2023-05-15T01:35:15;9.82;;;5.63;;
38843;SDS011;24596;48.080;8.362;2023-05-15T01:37:43;9.35;;;5.38;;
38843;SDS011;24596;48.080;8.362;2023-05-15T01:40:09;9.40;;;6.28;;
38843;SDS011;24596;48.080;8.362;2023-05-15T01:42:35;9.55;;;5.18;;
38843;SDS011;24596;48.080;8.362;2023-05-15T01:45:03;8.93;;;5.57;;
38843;SDS011;24596;48.080;8.362;2023-05-15T01:47:52;10.02;;;5.93;;
38843;SDS011;24596;48.080;8.362;2023-05-15T01:50:16;9.13;;;5.80;;
38843;SDS011;24596;48.080;8.362;2023-05-15T01:52:52;9.27;;;5.70;;
38843;SDS011;24596;48.080;8.362;2023-05-15T01:55:18;9.20;;;5.97;;
38843;SDS011;24596;48.080;8.362;2023-05-15T01:57:48;8.45;;;5.40;;
38843;SDS011;24596;48.080;8.362;2023-05-15T02:00:15;8.73;;;5.93;;
38843;SDS011;24596;48.080;8.362;2023-05-15T02:02:41;9.98;;;5.28;;
38843;SDS011;24596;48.080;8.362;2023-05-15T02:05:06;9.40;;;5.43;;
38843;SDS011;24596;48.080;8.362;2023-05-15T02:07:32;8.60;;;5.22;;
38843;SDS011;24596;48.080;8.362;2023-05-15T02:09:58;9.48;;;4.97;;
38843;SDS011;24596;48.080;8.362;2023-05-15T02:12:23;8.73;;;4.63;;
38843;SDS011;24596;48.080;8.362;2023-05-15T02:14:48;8.40;;;4.80;;
38843;SDS011;24596;48.080;8.362;2023-05-15T02:17:14;7.72;;;4.93;;
38843;SDS011;24596;48.080;8.362;2023-05-15T02:19:40;7.05;;;4.68;;
38843;SDS011;24596;48.080;8.362;2023-05-15T02:22:05;7.88;;;4.45;;
38843;SDS011;24596;48.080;8.362;2023-05-15T02:24:31;7.03;;;4.28;;
38843;SDS011;24596;48.080;8.362;2023-05-15T02:34:54;11.32;;;4.40;;
38843;SDS011;24596;48.080;8.362;2023-05-15T02:37:27;8.15;;;4.90;;
38843;SDS011;24596;48.080;8.362;2023-05-15T02:39:55;8.70;;;4.82;;
38843;SDS011;24596;48.080;8.362;2023-05-15T02:42:22;7.97;;;4.40;;
38843;SDS011;24596;48.080;8.362;2023-05-15T02:44:47;9.90;;;6.18;;
38843;SDS011;24596;48.080;8.362;2023-05-15T02:47:13;9.85;;;6.38;;
38843;SDS011;24596;48.080;8.362;2023-05-15T02:49:38;8.23;;;5.22;;
38843;SDS011;24596;48.080;8.362;2023-05-15T02:52:04;8.82;;;4.95;;
38843;SDS011;24596;48.080;8.362;2023-05-15T02:54:29;8.23;;;5.30;;
38843;SDS011;24596;48.080;8.362;2023-05-15T02:56:55;11.10;;;5.32;;
38843;SDS011;24596;48.080;8.362;2023-05-15T02:59:20;11.98;;;5.25;;
38843;SDS011;24596;48.080;8.362;2023-05-15T03:01:46;10.07;;;5.20;;
38843;SDS011;24596;48.080;8.362;2023-05-15T03:04:12;10.25;;;4.72;;
38843;SDS011;24596;48.080;8.362;2023-05-15T03:06:38;8.73;;;5.15;;
38843;SDS011;24596;48.080;8.362;2023-05-15T03:09:03;8.23;;;5.13;;
38843;SDS011;24596;48.080;8.362;2023-05-15T03:11:28;8.75;;;5.22;;
38843;SDS011;24596;48.080;8.362;2023-05-15T03:13:53;11.75;;;5.28;;
38843;SDS011;24596;48.080;8.362;2023-05-15T03:16:18;9.85;;;5.82;;
38843;SDS011;24596;48.080;8.362;2023-05-15T03:18:44;10.13;;;5.95;;
38843;SDS011;24596;48.080;8.362;2023-05-15T03:21:09;10.07;;;6.65;;
38843;SDS011;24596;48.080;8.362;2023-05-15T03:23:34;10.20;;;7.13;;
38843;SDS011;24596;48.080;8.362;2023-05-15T03:25:59;12.68;;;7.65;;
38843;SDS011;24596;48.080;8.362;2023-05-15T03:28:25;16.50;;;8.05;;
38843;SDS011;24596;48.080;8.362;2023-05-15T03:30:50;13.68;;;8.13;;
38843;SDS011;24596;48.080;8.362;2023-05-15T03:33:15;12.52;;;7.28;;
38843;SDS011;24596;48.080;8.362;2023-05-15T03:35:40;11.40;;;7.13;;
38843;SDS011;24596;48.080;8.362;2023-05-15T03:38:05;11.65;;;7.15;;
38843;SDS011;24596;48.080;8.362;2023-05-15T03:40:31;11.30;;;7.75;;
38843;SDS011;24596;48.080;8.362;2023-05-15T03:42:56;10.70;;;7.30;;
38843;SDS011;24596;48.080;8.362;2023-05-15T03:45:22;11.60;;;7.22;;
38843;SDS011;24596;48.080;8.362;2023-05-15T03:47:47;16.00;;;7.13;;
38843;SDS011;24596;48.080;8.362;2023-05-15T03:50:12;9.07;;;6.45;;
38843;SDS011;24596;48.080;8.362;2023-05-15T03:52:37;10.88;;;5.78;;
38843;SDS011;24596;48.080;8.362;2023-05-15T03:55:03;11.23;;;7.10;;
38843;SDS011;24596;48.080;8.362;2023-05-15T03:57:29;11.15;;;6.47;;
38843;SDS011;24596;48.080;8.362;2023-05-15T03:59:54;10.48;;;6.65;;
38843;SDS011;24596;48.080;8.362;2023-05-15T04:02:20;16.20;;;6.43;;
38843;SDS011;24596;48.080;8.362;2023-05-15T04:04:45;11.43;;;7.22;;
38843;SDS011;24596;48.080;8.362;2023-05-15T04:07:10;11.13;;;6.50;;
38843;SDS011;24596;48.080;8.362;2023-05-15T04:09:35;11.60;;;7.20;;
38843;SDS011;24596;48.080;8.362;2023-05-15T04:12:00;11.52;;;6.88;;
38843;SDS011;24596;48.080;8.362;2023-05-15T04:14:26;13.07;;;7.07;;
38843;SDS011;24596;48.080;8.362;2023-05-15T04:16:51;11.57;;;6.78;;
38843;SDS011;24596;48.080;8.362;2023-05-15T04:19:16;11.43;;;7.10;;
38843;SDS011;24596;48.080;8.362;2023-05-15T04:21:41;11.35;;;6.97;;
38843;SDS011;24596;48.080;8.362;2023-05-15T04:24:06;12.27;;;7.72;;
38843;SDS011;24596;48.080;8.362;2023-05-15T04:26:32;12.70;;;7.55;;
38843;SDS011;24596;48.080;8.362;2023-05-15T04:28:58;11.45;;;6.88;;
38843;SDS011;24596;48.080;8.362;2023-05-15T04:31:24;15.55;;;7.38;;
38843;SDS011;24596;48.080;8.362;2023-05-15T04:33:51;12.23;;;7.57;;
38843;SDS011;24596;48.080;8.362;2023-05-15T04:36:16;13.13;;;7.57;;
38843;SDS011;24596;48.080;8.362;2023-05-15T04:38:41;16.27;;;7.60;;
38843;SDS011;24596;48.080;8.362;2023-05-15T04:41:06;16.88;;;8.50;;
38843;SDS011;24596;48.080;8.362;2023-05-15T04:43:31;13.02;;;7.43;;
38843;SDS011;24596;48.080;8.362;2023-05-15T04:45:57;14.30;;;7.90;;
38843;SDS011;24596;48.080;8.362;2023-05-15T04:48:22;15.82;;;8.15;;
38843;SDS011;24596;48.080;8.362;2023-05-15T04:50:47;19.10;;;8.80;;
38843;SDS011;24596;48.080;8.362;2023-05-15T04:53:12;13.40;;;8.48;;
38843;SDS011;24596;48.080;8.362;2023-05-15T04:55:38;12.10;;;8.23;;
38843;SDS011;24596;48.080;8.362;2023-05-15T04:58:03;14.05;;;8.63;;
38843;SDS011;24596;48.080;8.362;2023-05-15T05:00:28;15.15;;;8.07;;
38843;SDS011;24596;48.080;8.362;2023-05-15T05:02:55;12.95;;;7.85;;
38843;SDS011;24596;48.080;8.362;2023-05-15T05:05:20;16.33;;;8.20;;
38843;SDS011;24596;48.080;8.362;2023-05-15T05:07:45;12.45;;;7.20;;
38843;SDS011;24596;48.080;8.362;2023-05-15T05:10:11;13.05;;;7.82;;
38843;SDS011;24596;48.080;8.362;2023-05-15T05:12:36;11.57;;;7.32;;
38843;SDS011;24596;48.080;8.362;2023-05-15T05:15:01;10.27;;;7.03;;
38843;SDS011;24596;48.080;8.362;2023-05-15T05:17:26;17.15;;;8.52;;
38843;SDS011;24596;48.080;8.362;2023-05-15T05:19:52;12.40;;;6.88;;
38843;SDS011;24596;48.080;8.362;2023-05-15T05:22:17;11.95;;;7.68;;
38843;SDS011;24596;48.080;8.362;2023-05-15T05:24:42;11.02;;;6.45;;
38843;SDS011;24596;48.080;8.362;2023-05-15T05:27:07;10.73;;;6.93;;
38843;SDS011;24596;48.080;8.362;2023-05-15T05:29:32;13.77;;;7.13;;
38843;SDS011;24596;48.080;8.362;2023-05-15T05:31:58;12.30;;;7.25;;
38843;SDS011;24596;48.080;8.362;2023-05-15T05:34:23;13.68;;;7.32;;
38843;SDS011;24596;48.080;8.362;2023-05-15T05:36:48;13.40;;;6.32;;
38843;SDS011;24596;48.080;8.362;2023-05-15T05:39:14;10.82;;;7.15;;
38843;SDS011;24596;48.080;8.362;2023-05-15T05:41:40;11.77;;;7.43;;
38843;SDS011;24596;48.080;8.362;2023-05-15T05:44:06;13.25;;;7.88;;
38843;SDS011;24596;48.080;8.362;2023-05-15T05:46:31;11.93;;;7.47;;
38843;SDS011;24596;48.080;8.362;2023-05-15T05:48:56;15.07;;;8.40;;
38843;SDS011;24596;48.080;8.362;2023-05-15T05:51:22;14.45;;;9.27;;
38843;SDS011;24596;48.080;8.362;2023-05-15T05:53:47;14.98;;;9.85;;
38843;SDS011;24596;48.080;8.362;2023-05-15T05:56:12;12.70;;;8.57;;
38843;SDS011;24596;48.080;8.362;2023-05-15T05:58:37;16.75;;;8.40;;
38843;SDS011;24596;48.080;8.362;2023-05-15T06:01:03;14.20;;;9.13;;
38843;SDS011;24596;48.080;8.362;2023-05-15T06:03:29;13.93;;;8.75;;
38843;SDS011;24596;48.080;8.362;2023-05-15T06:05:55;15.20;;;8.18;;
38843;SDS011;24596;48.080;8.362;2023-05-15T06:08:21;20.02;;;9.77;;
38843;SDS011;24596;48.080;8.362;2023-05-15T06:10:46;21.50;;;12.60;;
38843;SDS011;24596;48.080;8.362;2023-05-15T06:13:12;14.13;;;9.10;;
38843;SDS011;24596;48.080;8.362;2023-05-15T06:15:38;12.52;;;7.85;;
38843;SDS011;24596;48.080;8.362;2023-05-15T06:18:04;11.40;;;7.72;;
38843;SDS011;24596;48.080;8.362;2023-05-15T06:20:30;10.90;;;7.22;;
38843;SDS011;24596;48.080;8.362;2023-05-15T06:22:55;10.18;;;6.47;;
38843;SDS011;24596;48.080;8.362;2023-05-15T06:25:20;10.70;;;6.88;;
38843;SDS011;24596;48.080;8.362;2023-05-15T06:27:45;10.27;;;6.70;;
38843;SDS011;24596;48.080;8.362;2023-05-15T06:30:11;13.35;;;6.88;;
38843;SDS011;24596;48.080;8.362;2023-05-15T06:32:37;10.27;;;5.97;;
38843;SDS011;24596;48.080;8.362;2023-05-15T06:35:02;8.38;;;5.57;;
38843;SDS011;24596;48.080;8.362;2023-05-15T06:37:27;11.27;;;6.22;;
38843;SDS011;24596;48.080;8.362;2023-05-15T06:39:53;10.43;;;6.43;;
38843;SDS011;24596;48.080;8.362;2023-05-15T06:42:18;9.95;;;6.45;;
38843;SDS011;24596;48.080;8.362;2023-05-15T06:44:43;10.38;;;6.80;;
38843;SDS011;24596;48.080;8.362;2023-05-15T06:47:08;8.45;;;5.80;;
38843;SDS011;24596;48.080;8.362;2023-05-15T06:49:34;11.07;;;6.07;;
38843;SDS011;24596;48.080;8.362;2023-05-15T06:51:59;8.70;;;5.40;;
38843;SDS011;24596;48.080;8.362;2023-05-15T06:54:24;9.27;;;5.68;;
38843;SDS011;24596;48.080;8.362;2023-05-15T06:56:49;8.18;;;5.20;;
38843;SDS011;24596;48.080;8.362;2023-05-15T06:59:15;7.97;;;4.85;;
38843;SDS011;24596;48.080;8.362;2023-05-15T07:01:40;9.13;;;4.90;;
38843;SDS011;24596;48.080;8.362;2023-05-15T07:04:05;8.93;;;5.10;;
38843;SDS011;24596;48.080;8.362;2023-05-15T07:06:30;9.75;;;4.65;;
38843;SDS011;24596;48.080;8.362;2023-05-15T07:08:56;7.97;;;5.20;;
38843;SDS011;24596;48.080;8.362;2023-05-15T07:11:21;8.93;;;4.63;;
38843;SDS011;24596;48.080;8.362;2023-05-15T07:13:46;6.90;;;3.97;;
38843;SDS011;24596;48.080;8.362;2023-05-15T07:16:12;6.72;;;4.03;;
38843;SDS011;24596;48.080;8.362;2023-05-15T07:18:37;8.23;;;4.60;;
38843;SDS011;24596;48.080;8.362;2023-05-15T07:21:02;7.82;;;4.10;;
38843;SDS011;24596;48.080;8.362;2023-05-15T07:23:27;7.70;;;4.30;;
38843;SDS011;24596;48.080;8.362;2023-05-15T07:25:53;8.00;;;4.72;;
38843;SDS011;24596;48.080;8.362;2023-05-15T07:28:18;8.15;;;4.22;;
38843;SDS011;24596;48.080;8.362;2023-05-15T07:30:44;9.30;;;4.40;;
38843;SDS011;24596;48.080;8.362;2023-05-15T07:33:09;6.68;;;4.07;;
38843;SDS011;24596;48.080;8.362;2023-05-15T07:35:34;6.60;;;3.97;;
38843;SDS011;24596;48.080;8.362;2023-05-15T07:38:00;9.63;;;4.15;;
38843;SDS011;24596;48.080;8.362;2023-05-15T07:40:25;7.90;;;4.38;;
38843;SDS011;24596;48.080;8.362;2023-05-15T07:42:50;7.03;;;3.90;;
38843;SDS011;24596;48.080;8.362;2023-05-15T07:45:15;7.03;;;4.30;;
38843;SDS011;24596;48.080;8.362;2023-05-15T07:47:44;9.60;;;4.07;;
38843;SDS011;24596;48.080;8.362;2023-05-15T07:50:10;11.05;;;4.10;;
38843;SDS011;24596;48.080;8.362;2023-05-15T07:52:35;6.63;;;4.18;;
38843;SDS011;24596;48.080;8.362;2023-05-15T07:55:00;6.38;;;3.80;;
38843;SDS011;24596;48.080;8.362;2023-05-15T07:57:26;9.13;;;3.95;;
38843;SDS011;24596;48.080;8.362;2023-05-15T07:59:51;7.18;;;3.67;;
38843;SDS011;24596;48.080;8.362;2023-05-15T08:02:16;6.97;;;3.53;;
38843;SDS011;24596;48.080;8.362;2023-05-15T08:04:41;8.40;;;3.53;;
38843;SDS011;24596;48.080;8.362;2023-05-15T08:07:06;6.38;;;3.80;;
38843;SDS011;24596;48.080;8.362;2023-05-15T08:09:32;7.70;;;3.30;;
38843;SDS011;24596;48.080;8.362;2023-05-15T08:12:12;6.03;;;3.20;;
38843;SDS011;24596;48.080;8.362;2023-05-15T08:14:38;6.95;;;3.38;;
38843;SDS011;24596;48.080;8.362;2023-05-15T08:17:03;5.82;;;2.83;;
38843;SDS011;24596;48.080;8.362;2023-05-15T08:19:28;5.40;;;3.00;;
38843;SDS011;24596;48.080;8.362;2023-05-15T08:21:54;7.03;;;3.20;;
38843;SDS011;24596;48.080;8.362;2023-05-15T08:24:19;8.80;;;3.38;;
38843;SDS011;24596;48.080;8.362;2023-05-15T08:26:45;5.72;;;2.85;;
38843;SDS011;24596;48.080;8.362;2023-05-15T08:29:10;7.20;;;3.17;;
38843;SDS011;24596;48.080;8.362;2023-05-15T08:31:35;4.97;;;2.47;;
38843;SDS011;24596;48.080;8.362;2023-05-15T08:34:00;5.85;;;3.08;;
38843;SDS011;24596;48.080;8.362;2023-05-15T08:36:26;5.10;;;2.22;;
38843;SDS011;24596;48.080;8.362;2023-05-15T08:38:51;6.57;;;2.75;;
38843;SDS011;24596;48.080;8.362;2023-05-15T08:41:22;5.03;;;2.72;;
38843;SDS011;24596;48.080;8.362;2023-05-15T08:43:49;5.97;;;2.78;;
38843;SDS011;24596;48.080;8.362;2023-05-15T08:46:16;6.68;;;2.47;;
38843;SDS011;24596;48.080;8.362;2023-05-15T08:48:41;5.65;;;2.90;;
38843;SDS011;24596;48.080;8.362;2023-05-15T08:51:07;5.32;;;2.63;;
38843;SDS011;24596;48.080;8.362;2023-05-15T08:53:33;6.45;;;2.88;;
38843;SDS011;24596;48.080;8.362;2023-05-15T08:55:58;7.35;;;3.13;;
38843;SDS011;24596;48.080;8.362;2023-05-15T08:58:23;5.22;;;2.80;;
38843;SDS011;24596;48.080;8.362;2023-05-15T09:00:52;6.45;;;3.03;;
38843;SDS011;24596;48.080;8.362;2023-05-15T09:03:17;6.05;;;3.22;;
38843;SDS011;24596;48.080;8.362;2023-05-15T09:05:46;6.57;;;3.25;;
38843;SDS011;24596;48.080;8.362;2023-05-15T09:08:12;8.55;;;2.63;;
38843;SDS011;24596;48.080;8.362;2023-05-15T09:10:39;6.88;;;3.13;;
38843;SDS011;24596;48.080;8.362;2023-05-15T09:13:04;5.63;;;3.10;;
38843;SDS011;24596;48.080;8.362;2023-05-15T09:15:29;6.47;;;3.13;;
38843;SDS011;24596;48.080;8.362;2023-05-15T09:17:55;6.50;;;3.25;;
38843;SDS011;24596;48.080;8.362;2023-05-15T09:20:28;5.97;;;3.10;;
38843;SDS011;24596;48.080;8.362;2023-05-15T09:22:54;5.28;;;2.80;;
38843;SDS011;24596;48.080;8.362;2023-05-15T09:25:32;6.50;;;3.22;;
38843;SDS011;24596;48.080;8.362;2023-05-15T09:28:08;6.30;;;3.28;;
38843;SDS011;24596;48.080;8.362;2023-05-15T09:30:36;6.82;;;3.30;;
38843;SDS011;24596;48.080;8.362;2023-05-15T09:33:01;4.57;;;2.75;;
38843;SDS011;24596;48.080;8.362;2023-05-15T09:35:31;5.10;;;2.97;;
38843;SDS011;24596;48.080;8.362;2023-05-15T09:37:57;7.35;;;2.80;;
38843;SDS011;24596;48.080;8.362;2023-05-15T09:40:25;8.55;;;3.40;;
38843;SDS011;24596;48.080;8.362;2023-05-15T09:42:52;5.60;;;2.67;;
38843;SDS011;24596;48.080;8.362;2023-05-15T09:45:17;5.70;;;3.37;;
38843;SDS011;24596;48.080;8.362;2023-05-15T09:47:43;5.53;;;2.90;;
38843;SDS011;24596;48.080;8.362;2023-05-15T09:50:08;7.53;;;3.88;;
38843;SDS011;24596;48.080;8.362;2023-05-15T09:52:34;7.65;;;3.25;;
38843;SDS011;24596;48.080;8.362;2023-05-15T09:55:00;5.63;;;3.40;;
38843;SDS011;24596;48.080;8.362;2023-05-15T09:57:25;7.85;;;2.92;;
38843;SDS011;24596;48.080;8.362;2023-05-15T09:59:51;7.10;;;3.03;;
38843;SDS011;24596;48.080;8.362;2023-05-15T10:02:26;5.43;;;3.03;;
38843;SDS011;24596;48.080;8.362;2023-05-15T10:04:56;5.35;;;2.80;;
38843;SDS011;24596;48.080;8.362;2023-05-15T10:07:28;4.85;;;2.67;;
38843;SDS011;24596;48.080;8.362;2023-05-15T10:09:53;5.38;;;2.70;;
38843;SDS011;24596;48.080;8.362;2023-05-15T10:12:18;6.40;;;3.00;;
38843;SDS011;24596;48.080;8.362;2023-05-15T10:14:44;5.45;;;2.92;;
38843;SDS011;24596;48.080;8.362;2023-05-15T10:17:09;6.00;;;3.00;;
38843;SDS011;24596;48.080;8.362;2023-05-15T10:19:36;7.43;;;3.42;;
38843;SDS011;24596;48.080;8.362;2023-05-15T10:22:01;7.93;;;3.42;;
38843;SDS011;24596;48.080;8.362;2023-05-15T10:24:27;5.88;;;3.03;;
38843;SDS011;24596;48.080;8.362;2023-05-15T10:26:54;5.28;;;3.08;;
38843;SDS011;24596;48.080;8.362;2023-05-15T10:29:19;6.40;;;3.10;;
38843;SDS011;24596;48.080;8.362;2023-05-15T10:31:45;6.47;;;3.13;;
38843;SDS011;24596;48.080;8.362;2023-05-15T10:34:12;6.03;;;3.00;;
38843;SDS011;24596;48.080;8.362;2023-05-15T10:36:38;5.68;;;3.20;;
38843;SDS011;24596;48.080;8.362;2023-05-15T10:39:04;5.72;;;2.70;;
38843;SDS011;24596;48.080;8.362;2023-05-15T10:41:30;6.65;;;3.30;;
38843;SDS011;24596;48.080;8.362;2023-05-15T10:43:59;7.97;;;3.17;;
38843;SDS011;24596;48.080;8.362;2023-05-15T10:46:28;6.07;;;2.92;;
38843;SDS011;24596;48.080;8.362;2023-05-15T10:48:53;7.05;;;2.67;;
38843;SDS011;24596;48.080;8.362;2023-05-15T10:53:51;6.70;;;3.00;;
38843;SDS011;24596;48.080;8.362;2023-05-15T10:56:16;6.03;;;2.78;;
38843;SDS011;24596;48.080;8.362;2023-05-15T10:58:48;5.20;;;1.92;;
38843;SDS011;24596;48.080;8.362;2023-05-15T11:01:29;3.25;;;1.55;;
38843;SDS011;24596;48.080;8.362;2023-05-15T11:04:08;4.60;;;1.85;;
38843;SDS011;24596;48.080;8.362;2023-05-15T11:06:35;3.42;;;1.90;;
38843;SDS011;24596;48.080;8.362;2023-05-15T11:11:56;3.78;;;1.55;;
38843;SDS011;24596;48.080;8.362;2023-05-15T11:14:22;5.20;;;1.73;;
38843;SDS011;24596;48.080;8.362;2023-05-15T11:24:25;4.05;;;1.95;;
38843;SDS011;24596;48.080;8.362;2023-05-15T11:26:51;5.15;;;1.90;;
38843;SDS011;24596;48.080;8.362;2023-05-15T11:29:17;4.10;;;1.92;;
38843;SDS011;24596;48.080;8.362;2023-05-15T11:31:42;3.33;;;1.60;;
38843;SDS011;24596;48.080;8.362;2023-05-15T11:34:07;4.70;;;2.20;;
38843;SDS011;24596;48.080;8.362;2023-05-15T11:36:33;6.53;;;2.40;;
38843;SDS011;24596;48.080;8.362;2023-05-15T11:38:58;4.75;;;2.30;;
38843;SDS011;24596;48.080;8.362;2023-05-15T11:41:23;4.45;;;2.00;;
38843;SDS011;24596;48.080;8.362;2023-05-15T11:43:55;3.17;;;1.60;;
38843;SDS011;24596;48.080;8.362;2023-05-15T11:46:21;5.53;;;1.95;;
38843;SDS011;24596;48.080;8.362;2023-05-15T11:48:47;4.07;;;1.75;;
38843;SDS011;24596;48.080;8.362;2023-05-15T11:51:14;2.47;;;1.35;;
38843;SDS011;24596;48.080;8.362;2023-05-15T11:53:40;5.35;;;1.58;;
38843;SDS011;24596;48.080;8.362;2023-05-15T11:56:06;7.47;;;1.98;;
38843;SDS011;24596;48.080;8.362;2023-05-15T11:58:37;5.47;;;2.30;;
38843;SDS011;24596;48.080;8.362;2023-05-15T12:01:02;4.10;;;2.00;;
38843;SDS011;24596;48.080;8.362;2023-05-15T12:03:31;7.20;;;2.45;;
38843;SDS011;24596;48.080;8.362;2023-05-15T12:05:57;7.03;;;2.05;;
38843;SDS011;24596;48.080;8.362;2023-05-15T12:08:22;5.40;;;2.55;;
38843;SDS011;24596;48.080;8.362;2023-05-15T12:10:47;4.85;;;2.17;;
38843;SDS011;24596;48.080;8.362;2023-05-15T12:13:13;5.88;;;2.38;;
38843;SDS011;24596;48.080;8.362;2023-05-15T12:15:39;6.50;;;2.00;;
38843;SDS011;24596;48.080;8.362;2023-05-15T12:18:05;5.85;;;2.20;;
38843;SDS011;24596;48.080;8.362;2023-05-15T12:20:34;6.95;;;2.33;;
38843;SDS011;24596;48.080;8.362;2023-05-15T12:23:00;4.88;;;2.10;;
38843;SDS011;24596;48.080;8.362;2023-05-15T12:25:25;4.47;;;2.75;;
38843;SDS011;24596;48.080;8.362;2023-05-15T12:27:50;6.00;;;2.03;;
38843;SDS011;24596;48.080;8.362;2023-05-15T12:30:16;5.10;;;1.80;;
38843;SDS011;24596;48.080;8.362;2023-05-15T12:32:42;5.57;;;2.00;;
38843;SDS011;24596;48.080;8.362;2023-05-15T12:35:08;3.88;;;1.88;;
38843;SDS011;24596;48.080;8.362;2023-05-15T12:37:34;4.40;;;2.20;;
38843;SDS011;24596;48.080;8.362;2023-05-15T12:39:59;5.10;;;2.05;;
38843;SDS011;24596;48.080;8.362;2023-05-15T12:42:25;3.70;;;1.98;;
38843;SDS011;24596;48.080;8.362;2023-05-15T12:44:51;5.03;;;2.33;;
38843;SDS011;24596;48.080;8.362;2023-05-15T12:47:23;4.15;;;2.35;;
38843;SDS011;24596;48.080;8.362;2023-05-15T12:49:48;4.82;;;2.00;;
38843;SDS011;24596;48.080;8.362;2023-05-15T12:52:14;4.75;;;2.17;;
38843;SDS011;24596;48.080;8.362;2023-05-15T12:54:40;5.35;;;2.53;;
38843;SDS011;24596;48.080;8.362;2023-05-15T12:57:06;3.90;;;1.95;;
38843;SDS011;24596;48.080;8.362;2023-05-15T12:59:32;5.68;;;2.97;;
38843;SDS011;24596;48.080;8.362;2023-05-15T13:01:57;4.90;;;2.20;;
38843;SDS011;24596;48.080;8.362;2023-05-15T13:04:22;6.72;;;2.70;;
38843;SDS011;24596;48.080;8.362;2023-05-15T13:06:47;5.32;;;2.58;;
38843;SDS011;24596;48.080;8.362;2023-05-15T13:09:13;5.28;;;2.85;;
38843;SDS011;24596;48.080;8.362;2023-05-15T13:11:42;5.18;;;2.50;;
38843;SDS011;24596;48.080;8.362;2023-05-15T13:14:07;6.95;;;2.65;;
38843;SDS011;24596;48.080;8.362;2023-05-15T13:16:33;5.88;;;3.03;;
38843;SDS011;24596;48.080;8.362;2023-05-15T13:19:00;6.45;;;3.22;;
38843;SDS011;24596;48.080;8.362;2023-05-15T13:21:25;6.45;;;2.80;;
38843;SDS011;24596;48.080;8.362;2023-05-15T13:23:50;6.30;;;2.77;;
38843;SDS011;24596;48.080;8.362;2023-05-15T13:26:16;6.22;;;2.60;;
38843;SDS011;24596;48.080;8.362;2023-05-15T13:28:41;5.10;;;2.40;;
38843;SDS011;24596;48.080;8.362;2023-05-15T13:31:06;4.43;;;2.22;;
38843;SDS011;24596;48.080;8.362;2023-05-15T13:33:32;5.22;;;2.50;;
38843;SDS011;24596;48.080;8.362;2023-05-15T13:35:59;6.32;;;2.80;;
38843;SDS011;24596;48.080;8.362;2023-05-15T13:38:24;5.32;;;2.28;;
38843;SDS011;24596;48.080;8.362;2023-05-15T13:40:50;7.78;;;2.40;;
38843;SDS011;24596;48.080;8.362;2023-05-15T13:43:15;3.30;;;2.00;;
38843;SDS011;24596;48.080;8.362;2023-05-15T13:45:40;6.07;;;2.03;;
38843;SDS011;24596;48.080;8.362;2023-05-15T13:48:05;6.43;;;2.03;;
38843;SDS011;24596;48.080;8.362;2023-05-15T13:50:31;4.43;;;1.80;;
38843;SDS011;24596;48.080;8.362;2023-05-15T13:52:56;6.30;;;1.92;;
38843;SDS011;24596;48.080;8.362;2023-05-15T13:55:21;5.60;;;2.30;;
38843;SDS011;24596;48.080;8.362;2023-05-15T13:57:46;3.95;;;2.08;;
38843;SDS011;24596;48.080;8.362;2023-05-15T14:00:12;5.78;;;2.25;;
38843;SDS011;24596;48.080;8.362;2023-05-15T14:02:42;3.78;;;2.00;;
38843;SDS011;24596;48.080;8.362;2023-05-15T14:05:10;4.53;;;2.15;;
38843;SDS011;24596;48.080;8.362;2023-05-15T14:07:35;5.70;;;3.28;;
38843;SDS011;24596;48.080;8.362;2023-05-15T14:10:01;5.43;;;2.60;;
38843;SDS011;24596;48.080;8.362;2023-05-15T14:12:26;8.40;;;3.05;;
38843;SDS011;24596;48.080;8.362;2023-05-15T14:14:51;4.20;;;2.00;;
38843;SDS011;24596;48.080;8.362;2023-05-15T14:17:16;9.00;;;2.08;;
38843;SDS011;24596;48.080;8.362;2023-05-15T14:19:42;5.38;;;2.35;;
38843;SDS011;24596;48.080;8.362;2023-05-15T14:22:08;6.05;;;2.65;;
38843;SDS011;24596;48.080;8.362;2023-05-15T14:24:33;8.98;;;3.30;;
38843;SDS011;24596;48.080;8.362;2023-05-15T14:26:58;5.85;;;2.75;;
38843;SDS011;24596;48.080;8.362;2023-05-15T14:29:23;9.10;;;3.70;;
38843;SDS011;24596;48.080;8.362;2023-05-15T14:31:49;7.00;;;3.20;;
38843;SDS011;24596;48.080;8.362;2023-05-15T14:34:15;7.07;;;4.30;;
38843;SDS011;24596;48.080;8.362;2023-05-15T14:36:41;11.20;;;6.90;;
38843;SDS011;24596;48.080;8.362;2023-05-15T14:39:06;16.80;;;8.20;;
38843;SDS011;24596;48.080;8.362;2023-05-15T14:41:31;13.63;;;6.50;;
38843;SDS011;24596;48.080;8.362;2023-05-15T14:43:56;8.48;;;5.60;;
38843;SDS011;24596;48.080;8.362;2023-05-15T14:46:22;7.45;;;4.22;;
38843;SDS011;24596;48.080;8.362;2023-05-15T14:48:47;8.75;;;3.75;;
38843;SDS011;24596;48.080;8.362;2023-05-15T14:51:12;7.18;;;3.83;;
38843;SDS011;24596;48.080;8.362;2023-05-15T14:53:37;5.88;;;3.22;;
38843;SDS011;24596;48.080;8.362;2023-05-15T14:56:03;6.78;;;3.65;;
38843;SDS011;24596;48.080;8.362;2023-05-15T14:58:28;7.07;;;2.90;;
38843;SDS011;24596;48.080;8.362;2023-05-15T15:00:54;7.22;;;2.90;;
38843;SDS011;24596;48.080;8.362;2023-05-15T15:03:19;7.20;;;3.50;;
38843;SDS011;24596;48.080;8.362;2023-05-15T15:05:46;5.15;;;3.10;;